Time;durP1;ratioP1;P1;durP2;ratioP2;P2;SDS_P1;SDS_P2;PMS_P1;PMS_P2;Temp;Humidity;BMP_temperature;BMP_pressure;BME280_temperature;BME280_humidity;BME280_pressure;Samples;Min_cycle;Max_cycle;Signal;HPM_P1;HPM_P2
2021/12/23 03:46:53;;;;;;;100.05;48.25;;;-2.40;99.80;;;;;;5106570;24;20410;-81
2021/12/23 03:49:19;;;;;;;94.83;43.93;;;-2.30;99.80;;;;;;4817311;29;20054;-81
2021/12/23 03:51:45;;;;;;;89.47;46.83;;;-2.20;99.80;;;;;;4805316;29;20026;-80
2021/12/23 03:54:11;;;;;;;99.78;45.88;;;-2.20;99.90;;;;;;4835180;29;20030;-80
2021/12/23 03:56:36;;;;;;;115.00;48.53;;;-2.20;99.60;;;;;;4820147;29;20262;-81
2021/12/23 03:59:02;;;;;;;102.70;50.20;;;-2.20;99.70;;;;;;4820276;29;20156;-80
2021/12/23 04:01:30;;;;;;;110.30;53.25;;;-2.20;99.90;;;;;;4804988;29;20049;-80
2021/12/23 04:03:57;;;;;;;109.57;51.75;;;-2.10;99.90;;;;;;4809778;29;20031;-80
2021/12/23 04:06:23;;;;;;;93.93;47.90;;;-2.10;99.90;;;;;;4841271;29;20026;-80
2021/12/23 04:08:49;;;;;;;113.28;51.65;;;-2.10;99.90;;;;;;4828604;29;20225;-80
2021/12/23 04:11:16;;;;;;;96.85;47.58;;;-2.00;99.90;;;;;;4819941;29;20087;-80
2021/12/23 04:13:41;;;;;;;103.20;47.50;;;-2.00;99.90;;;;;;4818421;29;20087;-80
2021/12/23 04:16:07;;;;;;;94.22;48.22;;;-2.00;99.90;;;;;;4819806;29;20042;-80
2021/12/23 04:18:34;;;;;;;100.22;47.75;;;-1.90;99.90;;;;;;4819046;29;20039;-80
2021/12/23 04:20:59;;;;;;;101.65;46.97;;;-1.90;99.90;;;;;;4830882;29;20038;-80
2021/12/23 04:23:28;;;;;;;94.32;45.65;;;-1.90;99.90;;;;;;4824458;29;20468;-80
2021/12/23 04:25:55;;;;;;;110.30;51.85;;;-1.80;99.90;;;;;;4819775;29;20058;-80
2021/12/23 04:28:21;;;;;;;;;;;-1.80;99.90;;;;;;4814852;29;20112;-80
2021/12/23 04:30:48;;;;;;;89.13;44.45;;;-1.80;99.90;;;;;;4818460;29;19913;-80
2021/12/23 04:33:14;;;;;;;105.72;50.80;;;-1.80;99.90;;;;;;4804644;29;20064;-80
2021/12/23 04:35:40;;;;;;;97.38;48.00;;;-1.70;99.90;;;;;;4819702;29;20026;-80
2021/12/23 04:38:06;;;;;;;98.80;48.38;;;-1.80;99.90;;;;;;4804724;29;20349;-80
2021/12/23 04:40:34;;;;;;;101.43;46.42;;;-1.70;99.90;;;;;;4816426;29;20039;-80
2021/12/23 04:43:02;;;;;;;94.72;45.55;;;-1.80;99.90;;;;;;4837629;29;20045;-80
2021/12/23 04:45:28;;;;;;;90.50;43.72;;;-1.80;99.90;;;;;;4816880;29;20034;-80
2021/12/23 04:47:54;;;;;;;81.17;40.13;;;-1.80;99.90;;;;;;4823892;29;20161;-80
2021/12/23 04:50:20;;;;;;;94.27;46.97;;;-1.80;99.90;;;;;;4821800;29;20038;-80
2021/12/23 04:52:46;;;;;;;91.85;43.50;;;-1.80;99.80;;;;;;4826956;29;20138;-80
2021/12/23 04:55:13;;;;;;;84.38;41.85;;;-1.80;99.70;;;;;;4801480;29;20063;-80
2021/12/23 04:57:39;;;;;;;83.68;41.97;;;-1.70;99.70;;;;;;4833430;29;20359;-80
2021/12/23 05:00:07;;;;;;;78.83;41.33;;;-1.70;99.50;;;;;;4803877;29;20030;-80
2021/12/23 05:02:33;;;;;;;87.93;43.78;;;-1.70;99.40;;;;;;4814371;29;20178;-80
2021/12/23 05:04:59;;;;;;;91.20;43.77;;;-1.70;99.40;;;;;;4795871;29;20038;-80
2021/12/23 05:07:26;;;;;;;84.17;41.63;;;-1.60;99.30;;;;;;4810879;29;20038;-80
2021/12/23 05:09:52;;;;;;;80.15;41.40;;;-1.60;99.10;;;;;;4802727;29;20035;-80
2021/12/23 05:12:17;;;;;;;91.13;43.65;;;-1.60;99.10;;;;;;4816081;29;20033;-80
2021/12/23 05:14:43;;;;;;;93.68;44.75;;;-1.70;99.00;;;;;;4823226;29;20272;-80
2021/12/23 05:17:09;;;;;;;89.53;42.70;;;-1.70;98.80;;;;;;4786607;29;20042;-80
2021/12/23 05:19:35;;;;;;;79.53;40.03;;;-1.70;98.70;;;;;;4813517;29;20087;-79
2021/12/23 05:22:01;;;;;;;87.45;40.75;;;-1.70;98.80;;;;;;4815642;29;20047;-80
2021/12/23 05:24:27;;;;;;;78.78;38.90;;;-1.70;98.70;;;;;;4804866;29;20041;-80
2021/12/23 05:26:52;;;;;;;85.75;42.75;;;-1.70;98.80;;;;;;4814302;29;20038;-80
2021/12/23 05:29:18;;;;;;;85.50;41.03;;;-1.70;98.80;;;;;;4827946;29;20041;-80
2021/12/23 05:31:44;;;;;;;77.60;38.13;;;-1.70;98.80;;;;;;4800676;29;20043;-80
2021/12/23 05:34:10;;;;;;;72.40;38.63;;;-1.70;98.80;;;;;;4807016;29;20063;-80
2021/12/23 05:36:36;;;;;;;86.75;44.00;;;-1.70;98.70;;;;;;4805758;29;20034;-80
2021/12/23 05:39:02;;;;;;;84.97;42.40;;;-1.70;98.70;;;;;;4803392;29;20079;-80
2021/12/23 05:41:28;;;;;;;87.00;44.08;;;-1.70;98.70;;;;;;4812231;29;20039;-80
2021/12/23 05:43:55;;;;;;;90.10;42.70;;;-1.70;98.60;;;;;;4818224;29;20372;-80
2021/12/23 05:46:21;;;;;;;91.43;43.30;;;-1.70;98.60;;;;;;4821723;29;20061;-80
2021/12/23 05:48:47;;;;;;;89.70;42.67;;;-1.70;98.70;;;;;;4816919;29;20098;-80
2021/12/23 05:51:13;;;;;;;84.45;40.22;;;-1.70;98.70;;;;;;4812241;29;20096;-80
2021/12/23 05:53:38;;;;;;;91.70;44.07;;;-1.70;98.60;;;;;;4816415;29;20058;-80
2021/12/23 05:56:05;;;;;;;84.63;40.47;;;-1.70;98.50;;;;;;4827395;29;20101;-80
2021/12/23 05:58:31;;;;;;;82.18;41.42;;;-1.80;98.50;;;;;;4829453;29;20122;-80
2021/12/23 06:00:57;;;;;;;76.05;37.28;;;-1.80;98.40;;;;;;4815079;29;20207;-80
2021/12/23 06:03:24;;;;;;;78.93;38.93;;;-1.80;98.30;;;;;;4803363;29;20118;-80
2021/12/23 06:05:49;;;;;;;84.70;40.85;;;-1.80;98.20;;;;;;4808110;29;20237;-80
2021/12/23 06:08:17;;;;;;;80.60;39.83;;;-1.80;98.10;;;;;;4799953;29;20038;-80
2021/12/23 06:10:43;;;;;;;91.93;43.72;;;-1.80;98.10;;;;;;4817146;29;20079;-79
2021/12/23 06:13:08;;;;;;;83.57;39.23;;;-1.80;98.10;;;;;;4810506;29;20042;-82
2021/12/23 06:15:34;;;;;;;76.95;39.72;;;-1.80;98.00;;;;;;4814495;29;20038;-80
2021/12/23 06:18:01;;;;;;;86.17;40.87;;;-1.80;97.90;;;;;;4816432;29;20113;-80
2021/12/23 06:20:27;;;;;;;78.20;38.90;;;-1.80;97.90;;;;;;4834822;29;20275;-79
2021/12/23 06:22:52;;;;;;;84.90;39.83;;;-1.80;97.90;;;;;;4850534;29;20034;-79
2021/12/23 06:25:18;;;;;;;75.18;39.92;;;-1.80;97.90;;;;;;4830845;29;20039;-79
2021/12/23 06:27:44;;;;;;;84.40;41.60;;;-1.80;97.90;;;;;;4815190;29;20029;-78
2021/12/23 06:30:15;;;;;;;85.25;40.50;;;-1.90;97.90;;;;;;4825264;29;20034;-79
2021/12/23 06:32:41;;;;;;;77.40;38.95;;;-1.90;98.10;;;;;;4833722;29;20030;-80
2021/12/23 06:35:07;;;;;;;89.40;42.47;;;-1.80;98.20;;;;;;4827851;29;20085;-81
2021/12/23 06:37:33;;;;;;;95.97;45.05;;;-1.80;98.40;;;;;;4832624;29;20041;-78
2021/12/23 06:39:59;;;;;;;92.00;43.63;;;-1.80;98.80;;;;;;4827302;29;20045;-81
2021/12/23 06:42:27;;;;;;;139.73;59.13;;;-1.80;98.80;;;;;;4830000;29;20136;-81
2021/12/23 06:44:53;;;;;;;111.30;50.55;;;-1.70;98.90;;;;;;4823875;29;20031;-80
2021/12/23 06:47:19;;;;;;;121.87;55.60;;;-1.70;98.90;;;;;;4815553;29;20104;-80
2021/12/23 06:49:47;;;;;;;179.07;75.10;;;-1.60;98.90;;;;;;4811985;29;20035;-80
2021/12/23 06:52:13;;;;;;;162.85;72.30;;;-1.60;99.00;;;;;;4799593;29;20054;-80
2021/12/23 06:54:43;;;;;;;159.18;67.65;;;-1.60;99.10;;;;;;4814043;29;20026;-80
2021/12/23 06:57:09;;;;;;;127.78;59.90;;;-1.50;99.20;;;;;;4822765;29;20298;-80
2021/12/23 06:59:35;;;;;;;146.38;71.60;;;-1.50;99.20;;;;;;4797766;29;20084;-81
2021/12/23 07:02:00;;;;;;;101.32;49.92;;;-1.50;99.20;;;;;;4841847;29;20342;-81
2021/12/23 07:04:31;;;;;;;103.83;49.07;;;-1.40;99.30;;;;;;4816421;29;20027;-80
2021/12/23 07:07:08;;;;;;;100.13;48.45;;;-1.40;99.30;;;;;;4815389;29;20390;-81
2021/12/23 07:09:34;;;;;;;100.68;47.92;;;-1.30;99.50;;;;;;4803425;29;20382;-81
2021/12/23 07:11:59;;;;;;;98.87;45.83;;;-1.30;99.60;;;;;;4808807;29;20164;-81
2021/12/23 07:14:25;;;;;;;94.43;45.90;;;-1.20;99.50;;;;;;4830712;29;20034;-80
2021/12/23 07:16:51;;;;;;;93.05;47.25;;;-1.20;99.60;;;;;;4812676;29;20226;-80
2021/12/23 07:19:17;;;;;;;87.35;42.08;;;-1.20;99.80;;;;;;4813133;29;20361;-80
2021/12/23 07:21:43;;;;;;;95.27;44.30;;;-1.10;99.90;;;;;;4791060;29;20080;-80
2021/12/23 07:24:08;;;;;;;89.95;40.75;;;-1.10;99.90;;;;;;4814620;29;20038;-80
2021/12/23 07:26:34;;;;;;;84.78;42.50;;;-1.00;99.80;;;;;;4812205;29;20039;-80
2021/12/23 07:29:00;;;;;;;109.55;46.38;;;-0.90;99.60;;;;;;4818304;29;20026;-82
2021/12/23 07:31:26;;;;;;;80.82;43.42;;;-0.90;99.60;;;;;;4817854;29;20069;-79
2021/12/23 07:33:53;;;;;;;85.70;45.40;;;-0.80;99.50;;;;;;4819339;29;20041;-81
2021/12/23 07:36:22;;;;;;;95.60;44.63;;;-0.80;99.60;;;;;;4818281;29;20126;-81
2021/12/23 07:38:48;;;;;;;89.15;43.88;;;-0.80;99.50;;;;;;4816713;29;20039;-80
2021/12/23 07:41:15;;;;;;;91.70;46.25;;;-0.70;99.50;;;;;;4813086;29;20026;-78
2021/12/23 07:46:07;;;;;;;94.00;46.00;;;-0.60;99.40;;;;;;4812407;29;20063;-79
2021/12/23 07:48:34;;;;;;;88.53;43.40;;;-0.60;99.40;;;;;;4817073;29;20034;-79
2021/12/23 07:51:01;;;;;;;93.50;43.77;;;-0.60;99.50;;;;;;4818853;29;20104;-80
2021/12/23 07:53:27;;;;;;;82.72;42.42;;;-0.60;99.70;;;;;;4821474;29;20075;-80
2021/12/23 07:55:53;;;;;;;95.00;45.05;;;-0.60;99.90;;;;;;4801186;29;20039;-80
2021/12/23 07:58:19;;;;;;;95.78;44.90;;;-0.50;99.80;;;;;;4817873;29;20054;-79
2021/12/23 08:00:45;;;;;;;89.95;42.92;;;-0.50;99.70;;;;;;4831749;29;20313;-81
2021/12/23 08:03:11;;;;;;;83.80;42.58;;;-0.40;99.70;;;;;;4816170;29;20027;-80
2021/12/23 08:05:37;;;;;;;82.95;39.67;;;-0.40;99.70;;;;;;4817097;29;20031;-81
2021/12/23 08:08:03;;;;;;;85.27;42.83;;;-0.30;99.40;;;;;;4832381;29;20019;-81
2021/12/23 08:10:29;;;;;;;86.30;44.38;;;-0.20;99.30;;;;;;4800627;29;20039;-81
2021/12/23 08:12:55;;;;;;;89.20;43.95;;;-0.20;99.30;;;;;;4817190;29;20318;-81
2021/12/23 08:15:21;;;;;;;85.85;42.53;;;-0.10;99.10;;;;;;4815692;29;20222;-80
2021/12/23 08:17:47;;;;;;;80.85;43.20;;;-0.10;99.20;;;;;;4813180;29;20048;-81
2021/12/23 08:20:15;;;;;;;90.70;44.08;;;-0.10;99.30;;;;;;4813373;29;20238;-81
2021/12/23 08:22:41;;;;;;;89.88;46.03;;;0.00;99.20;;;;;;4816312;29;20037;-81
2021/12/23 08:25:08;;;;;;;88.22;43.42;;;0.00;99.40;;;;;;4816446;29;20106;-81
2021/12/23 08:27:35;;;;;;;82.22;41.83;;;0.10;99.50;;;;;;4803732;29;20452;-80
2021/12/23 08:30:05;;;;;;;95.20;45.35;;;0.20;99.00;;;;;;4817459;29;20014;-81
2021/12/23 08:32:31;;;;;;;88.63;43.35;;;0.20;99.00;;;;;;4809655;29;20049;-81
2021/12/23 08:34:57;;;;;;;86.78;44.75;;;0.20;99.00;;;;;;4810203;29;20043;-81
2021/12/23 08:37:23;;;;;;;83.68;43.25;;;0.30;99.20;;;;;;4812518;29;20065;-80
2021/12/23 08:39:50;;;;;;;78.25;41.42;;;0.30;98.80;;;;;;4816726;29;20234;-79
2021/12/23 08:42:16;;;;;;;89.53;44.17;;;0.40;98.90;;;;;;4825112;29;20129;-79
2021/12/23 08:44:42;;;;;;;82.00;41.90;;;0.30;98.80;;;;;;4813799;29;20242;-79
2021/12/23 08:47:09;;;;;;;84.10;40.47;;;0.40;99.00;;;;;;4809599;29;20139;-79
2021/12/23 08:49:36;;;;;;;73.82;39.38;;;0.40;99.10;;;;;;4813603;29;20270;-79
2021/12/23 08:52:03;;;;;;;77.93;41.15;;;0.50;98.60;;;;;;4814470;29;20045;-79
2021/12/23 08:54:29;;;;;;;75.88;40.40;;;0.50;98.60;;;;;;4815803;29;20267;-80
2021/12/23 08:56:54;;;;;;;82.15;39.40;;;0.60;98.90;;;;;;4814353;29;20083;-79
2021/12/23 08:59:20;;;;;;;83.45;41.17;;;0.60;98.50;;;;;;4814846;29;20041;-80
2021/12/23 09:01:46;;;;;;;75.45;40.17;;;0.70;98.60;;;;;;4782361;29;20317;-79
2021/12/23 09:04:12;;;;;;;82.22;44.05;;;0.70;98.40;;;;;;4830661;29;20026;-80
2021/12/23 09:06:38;;;;;;;75.35;39.45;;;0.70;98.50;;;;;;4817126;29;20041;-80
2021/12/23 09:09:07;;;;;;;79.78;39.85;;;0.70;98.40;;;;;;4803576;29;20034;-79
2021/12/23 09:11:33;;;;;;;81.03;41.35;;;0.70;98.30;;;;;;4827215;29;20345;-78
2021/12/23 09:13:59;;;;;;;83.20;39.47;;;0.80;98.50;;;;;;4822364;29;20038;-79
2021/12/23 09:16:25;;;;;;;73.10;40.50;;;0.90;98.30;;;;;;4816573;29;20282;-80
2021/12/23 09:18:51;;;;;;;79.40;42.97;;;0.90;98.50;;;;;;4827114;29;20045;-81
2021/12/23 09:21:17;;;;;;;76.88;40.15;;;1.00;98.50;;;;;;4817647;29;20058;-80
2021/12/23 09:23:43;;;;;;;74.63;39.53;;;1.00;98.40;;;;;;4811602;29;20026;-81
2021/12/23 09:26:12;;;;;;;71.30;37.83;;;1.10;98.20;;;;;;4831878;29;20026;-81
2021/12/23 09:29:05;;;;;;;72.07;37.90;;;1.10;97.90;;;;;;4816100;29;20042;-80
2021/12/23 09:34:15;;;;;;;74.55;39.83;;;1.10;97.70;;;;;;4818749;29;20039;-79
2021/12/23 09:36:41;;;;;;;82.22;42.38;;;1.10;98.20;;;;;;4809685;29;20045;-79
2021/12/23 09:39:09;;;;;;;74.15;39.67;;;1.20;98.30;;;;;;4828705;29;20049;-79
2021/12/23 09:41:39;;;;;;;77.45;39.83;;;1.30;98.20;;;;;;4816477;29;20042;-79
2021/12/23 09:44:08;;;;;;;84.95;40.85;;;1.20;97.80;;;;;;4815779;29;20037;-79
2021/12/23 09:46:34;;;;;;;80.30;38.92;;;1.30;97.90;;;;;;4815866;29;20109;-81
2021/12/23 09:49:02;;;;;;;71.40;38.65;;;1.40;97.80;;;;;;4810653;29;20034;-79
2021/12/23 09:51:32;;;;;;;70.45;38.17;;;1.50;97.90;;;;;;4809725;29;20047;-79
2021/12/23 09:54:01;;;;;;;68.68;35.28;;;1.50;97.70;;;;;;4814687;29;20088;-79
2021/12/23 09:56:28;;;;;;;75.28;40.90;;;1.60;97.20;;;;;;4810985;29;20031;-79
2021/12/23 09:58:58;;;;;;;79.97;39.47;;;1.70;98.00;;;;;;4813515;29;20058;-79
2021/12/23 10:01:30;;;;;;;73.10;39.83;;;1.70;97.50;;;;;;4808027;29;20045;-79
2021/12/23 10:03:56;;;;;;;76.80;39.60;;;1.70;97.30;;;;;;4823150;29;20033;-79
2021/12/23 10:06:25;;;;;;;84.40;40.83;;;1.70;97.30;;;;;;4811899;29;20030;-80
2021/12/23 10:08:51;;;;;;;81.15;40.30;;;1.80;97.50;;;;;;4806060;29;20023;-80
2021/12/23 10:11:34;;;;;;;79.57;38.30;;;1.90;97.70;;;;;;4808730;29;20042;-80
2021/12/23 10:31:02;;;;;;;74.22;38.55;;;2.20;97.20;;;;;;4793286;30;20541;-80
2021/12/23 10:33:42;;;;;;;67.93;38.72;;;2.30;97.10;;;;;;4781365;30;20255;-80
2021/12/23 10:38:49;;;;;;;68.00;37.30;;;2.40;96.50;;;;;;4793436;30;20097;-80
2021/12/23 10:41:18;;;;;;;83.25;40.60;;;2.30;95.00;;;;;;4790123;30;20031;-80
2021/12/23 10:43:53;;;;;;;75.63;39.65;;;2.40;95.80;;;;;;4778564;30;20039;-80
2021/12/23 10:46:29;;;;;;;75.90;40.75;;;2.40;95.50;;;;;;4767906;30;20048;-80
2021/12/23 10:52:11;;;;;;;81.85;38.83;;;2.50;95.50;;;;;;4779292;30;20038;-80
2021/12/23 11:00:41;;;;;;;72.30;37.95;;;2.50;95.20;;;;;;4778714;30;20043;-80
2021/12/23 11:03:16;;;;;;;79.78;39.28;;;2.60;95.90;;;;;;4724292;30;20048;-80
2021/12/23 11:05:53;;;;;;;75.65;37.92;;;2.70;95.40;;;;;;4720632;30;20041;-80
2021/12/23 11:27:46;;;;;;;67.70;34.92;;;2.70;95.10;;;;;;4739353;30;20072;-81
2021/12/23 11:36:04;;;;;;;64.22;34.60;;;2.80;94.60;;;;;;4725915;30;20250;-80
2021/12/23 11:41:30;;;;;;;64.07;37.08;;;2.80;94.50;;;;;;4828905;29;20091;-80
2021/12/23 11:43:59;;;;;;;70.55;35.95;;;2.90;94.80;;;;;;4829332;29;20058;-81
2021/12/23 11:46:36;;;;;;;71.70;35.88;;;2.80;94.30;;;;;;4815749;29;20125;-79
2021/12/23 11:49:06;;;;;;;69.05;37.33;;;2.90;94.70;;;;;;4829759;29;20031;-79
2021/12/23 11:51:55;;;;;;;68.97;34.75;;;2.90;94.60;;;;;;4817431;29;20097;-79
2021/12/23 11:54:42;;;;;;;63.50;32.70;;;2.90;94.50;;;;;;4818661;29;20100;-80
2021/12/23 11:57:16;;;;;;;56.20;31.42;;;2.90;94.00;;;;;;4814443;29;20049;-80
2021/12/23 11:59:50;;;;;;;65.53;30.63;;;2.90;94.30;;;;;;4844215;29;20026;-80
2021/12/23 12:02:19;;;;;;;57.92;31.48;;;2.90;94.50;;;;;;4813256;29;20054;-81
2021/12/23 12:04:47;;;;;;;54.17;31.50;;;3.00;94.10;;;;;;4828466;29;21183;-79
2021/12/23 12:07:20;;;;;;;47.92;28.70;;;3.00;93.90;;;;;;4828854;29;20039;-80
2021/12/23 12:10:12;;;;;;;56.45;29.27;;;3.00;93.80;;;;;;4827734;29;20060;-80
2021/12/23 12:13:05;;;;;;;53.13;29.08;;;3.00;93.80;;;;;;4827424;29;20082;-80
2021/12/23 12:15:47;;;;;;;57.88;29.92;;;3.00;93.90;;;;;;4825235;29;20222;-80
2021/12/23 12:18:22;;;;;;;53.15;28.60;;;3.10;93.80;;;;;;4830726;29;20386;-80
2021/12/23 12:20:54;;;;;;;55.28;25.83;;;3.10;93.50;;;;;;4827770;29;20333;-80
2021/12/23 12:23:29;;;;;;;53.60;28.67;;;3.00;93.60;;;;;;4825296;29;20022;-80
2021/12/23 12:25:58;;;;;;;59.53;31.70;;;3.00;93.10;;;;;;4806327;29;20034;-80
2021/12/23 12:28:31;;;;;;;53.95;29.42;;;3.00;93.20;;;;;;4826830;29;20037;-80
2021/12/23 12:31:06;;;;;;;54.97;31.02;;;3.00;93.30;;;;;;4810611;29;20381;-80
2021/12/23 12:33:34;;;;;;;58.20;31.55;;;3.00;93.40;;;;;;4841220;29;20222;-80
2021/12/23 12:36:06;;;;;;;56.05;30.70;;;2.90;93.00;;;;;;4818416;29;20105;-80
2021/12/23 12:38:41;;;;;;;70.68;31.65;;;2.90;93.10;;;;;;4811567;29;20039;-79
2021/12/23 12:41:25;;;;;;;58.55;31.52;;;2.90;93.10;;;;;;4817462;29;20095;-79
2021/12/23 12:44:00;;;;;;;58.85;30.55;;;2.80;93.00;;;;;;4826609;29;20114;-79
2021/12/23 12:46:35;;;;;;;59.40;30.35;;;2.90;93.10;;;;;;4825471;29;20112;-80
2021/12/23 12:49:12;;;;;;;50.67;28.38;;;2.80;92.90;;;;;;4808872;29;20072;-79
2021/12/23 12:51:43;;;;;;;67.65;34.08;;;2.80;93.10;;;;;;4816711;29;20034;-79
2021/12/23 12:54:14;;;;;;;63.25;34.00;;;2.90;93.00;;;;;;4815291;29;20110;-79
2021/12/23 12:56:48;;;;;;;54.05;30.55;;;2.90;92.80;;;;;;4810307;29;20022;-80
2021/12/23 12:59:15;;;;;;;55.20;29.35;;;2.80;92.70;;;;;;4826312;29;20041;-79
2021/12/23 13:01:45;;;;;;;57.95;30.60;;;2.80;93.00;;;;;;4825615;29;20113;-79
2021/12/23 13:04:29;;;;;;;52.47;29.50;;;2.90;93.00;;;;;;4808309;29;20237;-80
2021/12/23 13:06:57;;;;;;;55.97;29.95;;;2.90;92.70;;;;;;4814150;29;20029;-80
2021/12/23 13:10:05;;;;;;;53.95;30.13;;;2.90;92.60;;;;;;4826606;29;20076;-80
2021/12/23 13:12:55;;;;;;;56.90;31.58;;;2.90;92.80;;;;;;4831280;29;20052;-80
2021/12/23 13:15:41;;;;;;;62.67;29.67;;;2.90;92.80;;;;;;4830454;29;20030;-80
2021/12/23 13:18:19;;;;;;;61.53;31.15;;;2.80;92.40;;;;;;4812663;29;20042;-79
2021/12/23 13:20:49;;;;;;;54.63;31.27;;;2.70;92.40;;;;;;4815126;29;20121;-80
2021/12/23 13:23:32;;;;;;;64.32;31.40;;;2.70;92.80;;;;;;4812318;29;20026;-80
2021/12/23 13:26:05;;;;;;;55.85;29.92;;;2.70;92.70;;;;;;4820501;29;20080;-80
2021/12/23 13:28:39;;;;;;;54.88;31.42;;;2.70;92.70;;;;;;4830519;29;20065;-81
2021/12/23 13:31:20;;;;;;;60.92;31.92;;;2.60;92.70;;;;;;4821050;29;20222;-81
2021/12/23 13:33:54;;;;;;;55.33;31.60;;;2.60;92.90;;;;;;4808821;29;20034;-80
2021/12/23 13:36:25;;;;;;;55.20;28.63;;;2.60;93.00;;;;;;4811405;29;20050;-79
2021/12/23 13:38:57;;;;;;;56.50;32.17;;;2.60;92.90;;;;;;4825846;29;20034;-81
2021/12/23 13:41:48;;;;;;;57.08;30.52;;;2.60;93.00;;;;;;4810905;29;20046;-80
2021/12/23 13:44:29;;;;;;;59.92;31.02;;;2.60;93.10;;;;;;4813262;29;20035;-80
2021/12/23 13:47:32;;;;;;;56.22;30.42;;;2.60;93.00;;;;;;4809833;29;20258;-80
2021/12/23 13:49:59;;;;;;;63.55;32.47;;;2.60;93.00;;;;;;4802414;29;20339;-80
2021/12/23 13:52:40;;;;;;;57.25;30.25;;;2.60;92.90;;;;;;4797499;29;20043;-80
2021/12/23 13:55:09;;;;;;;62.55;31.80;;;2.60;93.10;;;;;;4783069;29;20043;-80
2021/12/23 13:57:37;;;;;;;59.58;30.92;;;2.70;93.10;;;;;;4800030;29;20255;-81
2021/12/23 14:00:34;;;;;;;62.95;31.55;;;2.80;93.20;;;;;;4797237;29;20078;-79
2021/12/23 14:03:04;;;;;;;;;;;2.80;92.50;;;;;;4711858;30;20048;-80
2021/12/23 14:05:30;;;;;;;56.72;29.77;;;2.70;92.80;;;;;;4711447;30;19911;-81
2021/12/23 14:07:56;;;;;;;58.67;32.25;;;2.60;92.60;;;;;;4698191;30;20041;-81
2021/12/23 14:10:26;;;;;;;63.40;30.77;;;2.60;92.70;;;;;;4699946;30;20041;-80
2021/12/23 14:13:00;;;;;;;63.83;33.28;;;2.60;92.70;;;;;;4695598;30;20056;-81
2021/12/23 14:15:36;;;;;;;56.60;29.60;;;2.60;92.70;;;;;;4675989;30;20241;-81
2021/12/23 14:18:16;;;;;;;64.00;31.75;;;2.60;92.80;;;;;;4708915;30;20041;-81
2021/12/23 14:23:39;;;;;;;55.15;30.75;;;2.50;92.50;;;;;;4695790;30;20280;-81
2021/12/23 14:26:21;;;;;;;64.15;31.95;;;2.50;92.80;;;;;;4720682;30;20040;-81
2021/12/23 14:28:46;;;;;;;62.08;33.22;;;2.40;92.80;;;;;;4740020;30;20045;-81
2021/12/23 14:31:23;;;;;;;57.05;31.40;;;2.40;93.00;;;;;;4717890;30;20299;-81
2021/12/23 14:34:04;;;;;;;59.42;31.77;;;2.40;92.90;;;;;;4711456;30;20048;-81
2021/12/23 14:36:34;;;;;;;57.95;31.90;;;2.40;92.90;;;;;;4727036;30;20040;-81
2021/12/23 14:39:06;;;;;;;62.10;30.77;;;2.40;92.90;;;;;;4743855;29;20035;-81
2021/12/23 14:41:53;;;;;;;71.60;33.30;;;2.40;92.90;;;;;;4827371;29;21199;-81
2021/12/23 14:44:22;;;;;;;58.90;30.77;;;2.40;92.90;;;;;;4814166;29;20390;-81
2021/12/23 14:46:56;;;;;;;61.60;32.90;;;2.30;92.90;;;;;;4822882;29;20056;-81
2021/12/23 14:52:24;;;;;;;68.57;35.50;;;2.20;93.20;;;;;;4829504;29;20035;-81
2021/12/23 14:54:55;;;;;;;60.35;32.72;;;2.10;93.30;;;;;;4809953;29;20038;-81
2021/12/23 14:57:26;;;;;;;63.55;32.55;;;2.10;93.40;;;;;;4824548;29;20041;-82
2021/12/23 14:59:56;;;;;;;63.90;34.72;;;2.10;93.50;;;;;;4819125;29;20043;-80
2021/12/23 15:02:28;;;;;;;65.70;34.88;;;2.10;93.40;;;;;;4809355;29;20056;-81
2021/12/23 15:05:02;;;;;;;59.72;31.83;;;2.00;93.30;;;;;;4811440;29;20053;-82
2021/12/23 15:07:48;;;;;;;64.32;34.85;;;2.00;93.30;;;;;;4826900;29;20057;-80
2021/12/23 15:10:24;;;;;;;;;;;2.00;93.50;;;;;;4799751;29;20368;-81
2021/12/23 15:12:50;;;;;;;68.38;32.78;;;1.90;93.60;;;;;;4810725;29;20154;-81
2021/12/23 15:15:16;;;;;;;61.63;34.53;;;1.80;93.80;;;;;;4779699;29;20104;-81
2021/12/23 15:17:48;;;;;;;65.03;35.30;;;1.80;93.80;;;;;;4816182;29;20026;-81
2021/12/23 15:20:28;;;;;;;60.92;33.30;;;1.80;94.00;;;;;;4824419;29;20035;-79
2021/12/23 15:22:56;;;;;;;72.75;34.80;;;1.80;94.00;;;;;;4817724;29;20075;-81
2021/12/23 15:25:33;;;;;;;67.97;33.28;;;1.80;94.00;;;;;;4814456;29;20061;-80
2021/12/23 15:27:59;;;;;;;64.82;34.85;;;1.70;94.10;;;;;;4810771;29;20035;-80
2021/12/23 15:30:29;;;;;;;67.55;34.92;;;1.70;94.10;;;;;;4816005;29;20033;-81
2021/12/23 15:32:56;;;;;;;67.85;34.25;;;1.60;94.20;;;;;;4810002;29;20039;-81
2021/12/23 15:35:25;;;;;;;62.08;34.17;;;1.60;94.30;;;;;;4808732;29;20331;-81
2021/12/23 15:37:54;;;;;;;71.03;35.42;;;1.60;94.40;;;;;;4809776;29;20027;-81
2021/12/23 15:40:37;;;;;;;67.53;35.00;;;1.60;94.40;;;;;;4810620;29;20058;-81
2021/12/23 15:43:06;;;;;;;64.97;35.05;;;1.60;94.40;;;;;;4823752;29;20073;-81
2021/12/23 15:45:34;;;;;;;67.47;37.03;;;1.50;94.40;;;;;;4810011;29;20034;-81
2021/12/23 15:48:01;;;;;;;87.07;39.83;;;1.50;94.40;;;;;;4810250;29;20338;-81
2021/12/23 15:50:30;;;;;;;72.45;39.72;;;1.50;94.60;;;;;;4821833;29;20039;-81
2021/12/23 15:53:00;;;;;;;66.55;36.38;;;1.50;94.70;;;;;;4810748;29;20107;-81
2021/12/23 15:55:28;;;;;;;83.28;41.28;;;1.40;94.80;;;;;;4825858;29;20030;-80
2021/12/23 15:57:54;;;;;;;78.05;39.05;;;1.40;94.60;;;;;;4814083;29;20062;-81
2021/12/23 16:00:20;;;;;;;69.43;37.03;;;1.40;94.70;;;;;;4831984;29;20058;-81
2021/12/23 16:02:49;;;;;;;75.57;41.10;;;1.40;94.60;;;;;;4816364;29;20049;-81
2021/12/23 16:07:42;;;;;;;75.88;39.25;;;1.30;94.50;;;;;;4827327;29;20039;-81
2021/12/23 16:10:13;;;;;;;90.57;40.63;;;1.30;94.60;;;;;;4826620;29;20045;-81
2021/12/23 16:12:40;;;;;;;82.32;40.17;;;1.20;94.50;;;;;;4814715;29;20055;-81
2021/12/23 16:15:09;;;;;;;74.53;39.03;;;1.20;94.60;;;;;;4815643;29;20038;-81
2021/12/23 16:17:35;;;;;;;76.25;38.90;;;1.20;94.70;;;;;;4816416;29;20230;-81
2021/12/23 16:20:03;;;;;;;80.20;39.87;;;1.10;94.70;;;;;;4827231;29;20401;-81
2021/12/23 16:22:29;;;;;;;75.25;39.70;;;1.10;94.70;;;;;;4812753;29;20045;-81
2021/12/23 16:24:56;;;;;;;73.82;39.13;;;1.00;95.10;;;;;;4816738;29;20045;-81
2021/12/23 16:27:22;;;;;;;;;;;1.00;95.10;;;;;;4814198;29;20535;-81
2021/12/23 16:30:19;;;;;;;85.80;41.58;;;0.90;95.00;;;;;;4822667;29;19917;-81
2021/12/23 16:33:09;;;;;;;70.10;38.00;;;0.90;95.00;;;;;;4827629;29;20055;-81
2021/12/23 16:35:39;;;;;;;79.22;40.42;;;0.90;95.10;;;;;;4811744;29;20105;-81
2021/12/23 16:38:06;;;;;;;82.35;43.70;;;0.90;95.10;;;;;;4827042;29;20035;-81
2021/12/23 16:40:36;;;;;;;83.50;44.03;;;0.90;95.10;;;;;;4815494;29;20082;-81
2021/12/23 16:43:02;;;;;;;88.38;43.03;;;0.80;95.30;;;;;;4810680;29;20042;-81
2021/12/23 16:45:30;;;;;;;80.10;42.15;;;0.80;95.70;;;;;;4815613;29;20409;-81
2021/12/23 16:47:57;;;;;;;69.65;37.25;;;0.80;95.70;;;;;;4808031;29;20053;-81
2021/12/23 16:50:23;;;;;;;75.47;39.13;;;0.90;95.60;;;;;;4828121;29;20039;-81
2021/12/23 16:52:51;;;;;;;75.25;39.15;;;0.80;95.70;;;;;;4815631;29;20031;-81
2021/12/23 16:58:04;;;;;;;81.60;39.67;;;0.80;95.50;;;;;;4817550;29;20083;-81
2021/12/23 17:00:31;;;;;;;81.57;41.83;;;0.80;95.50;;;;;;4813349;29;20225;-81
2021/12/23 17:02:57;;;;;;;85.90;40.95;;;0.70;95.50;;;;;;4824535;29;20231;-81
2021/12/23 17:05:26;;;;;;;89.38;44.20;;;0.70;95.60;;;;;;4795792;29;20045;-81
2021/12/23 17:07:52;;;;;;;91.50;45.58;;;0.70;95.80;;;;;;4826113;29;20034;-81
2021/12/23 17:10:24;;;;;;;85.97;45.28;;;0.60;96.00;;;;;;4797174;29;20298;-82
2021/12/23 17:12:52;;;;;;;100.13;46.58;;;0.60;96.00;;;;;;4813265;29;20035;-81
2021/12/23 17:15:18;;;;;;;91.95;48.40;;;0.60;96.10;;;;;;4826181;29;20126;-81
2021/12/23 17:17:45;;;;;;;92.67;46.27;;;0.60;96.10;;;;;;4827300;29;20090;-81
2021/12/23 17:22:55;;;;;;;92.53;46.72;;;0.50;96.10;;;;;;4825855;29;20042;-81
2021/12/23 17:25:21;;;;;;;89.00;46.38;;;0.50;96.00;;;;;;4822054;29;20288;-81
2021/12/23 17:27:47;;;;;;;89.63;45.92;;;0.50;96.00;;;;;;4811640;29;20030;-82
2021/12/23 17:30:13;;;;;;;90.78;46.42;;;0.40;95.90;;;;;;4814665;29;20026;-81
2021/12/23 17:32:40;;;;;;;84.23;43.60;;;0.40;96.00;;;;;;4827409;29;20226;-81
2021/12/23 17:35:09;;;;;;;84.18;42.40;;;0.40;96.20;;;;;;4826438;29;20030;-82
2021/12/23 17:37:37;;;;;;;100.03;46.33;;;0.40;96.20;;;;;;4813238;29;20269;-82
2021/12/23 17:40:06;;;;;;;86.45;43.97;;;0.40;96.40;;;;;;4813327;29;20400;-82
2021/12/23 17:42:32;;;;;;;90.88;49.15;;;0.40;96.60;;;;;;4813130;29;20041;-81
2021/12/23 17:45:00;;;;;;;98.80;47.72;;;0.40;96.60;;;;;;4823171;29;20038;-81
2021/12/23 17:47:26;;;;;;;90.35;45.53;;;0.40;96.60;;;;;;4813543;29;20087;-81